Time;durP1;ratioP1;P1;durP2;ratioP2;P2;SDS_P1;SDS_P2;PMS_P1;PMS_P2;Temp;Humidity;BMP_temperature;BMP_pressure;BME280_temperature;BME280_humidity;BME280_pressure;Samples;Min_cycle;Max_cycle;Signal;HPM_P1;HPM_P2
2021/07/26 00:01:19;;;;;;;4.75;3.00;;;17.70;99.90;;;;;;5032558;28;20072;-70
2021/07/26 00:03:44;;;;;;;5.53;3.05;;;17.70;99.90;;;;;;5025784;28;20502;-68
2021/07/26 00:06:10;;;;;;;7.07;3.60;;;17.70;99.90;;;;;;5030252;28;20029;-68
2021/07/26 00:08:36;;;;;;;7.00;3.40;;;17.70;99.90;;;;;;5032159;28;20535;-68
2021/07/26 00:11:04;;;;;;;6.63;3.67;;;17.60;99.90;;;;;;5033038;28;20029;-68
2021/07/26 00:13:29;;;;;;;5.72;3.78;;;17.60;99.90;;;;;;5028897;28;20030;-68
2021/07/26 00:15:55;;;;;;;4.97;3.47;;;17.60;99.90;;;;;;5035414;28;20032;-68
2021/07/26 00:18:21;;;;;;;4.50;3.25;;;17.50;99.90;;;;;;5031135;28;20032;-68
2021/07/26 00:20:46;;;;;;;6.07;3.45;;;17.50;99.90;;;;;;5035447;28;20026;-68
2021/07/26 00:23:12;;;;;;;7.28;3.63;;;17.50;99.90;;;;;;5030349;28;20025;-68
2021/07/26 00:25:37;;;;;;;5.78;3.30;;;17.40;99.90;;;;;;5031999;28;20029;-68
2021/07/26 00:28:03;;;;;;;5.28;3.42;;;17.40;99.90;;;;;;5035044;28;20041;-68
2021/07/26 00:30:29;;;;;;;8.52;3.70;;;17.40;99.90;;;;;;5035239;28;20394;-68
2021/07/26 00:32:54;;;;;;;4.57;2.85;;;17.30;99.90;;;;;;5026465;28;20068;-68
2021/07/26 00:35:20;;;;;;;6.57;3.08;;;17.30;99.90;;;;;;5024205;28;20021;-68
2021/07/26 00:37:45;;;;;;;4.32;3.08;;;17.30;99.90;;;;;;5034420;28;20029;-68
2021/07/26 00:40:11;;;;;;;7.10;3.10;;;17.20;99.90;;;;;;5035471;28;20087;-68
2021/07/26 00:42:37;;;;;;;5.53;3.63;;;17.10;99.90;;;;;;5030336;28;20025;-68
2021/07/26 00:45:04;;;;;;;6.28;3.03;;;17.10;99.90;;;;;;5034568;28;20025;-68
2021/07/26 00:47:29;;;;;;;5.55;3.33;;;17.10;99.90;;;;;;5033586;28;20061;-67
2021/07/26 00:49:55;;;;;;;6.82;3.45;;;17.10;99.90;;;;;;5036447;28;20056;-68
2021/07/26 00:52:21;;;;;;;5.25;3.20;;;17.00;99.90;;;;;;5034299;28;20460;-68
2021/07/26 00:54:48;;;;;;;6.10;3.78;;;17.00;99.90;;;;;;5026504;28;20022;-68
2021/07/26 00:57:14;;;;;;;9.75;3.58;;;17.00;99.90;;;;;;5031564;28;20030;-68
2021/07/26 00:59:40;;;;;;;5.70;3.33;;;17.00;99.90;;;;;;5032566;28;20022;-68
2021/07/26 01:02:05;;;;;;;8.93;4.00;;;16.90;99.90;;;;;;5029143;28;20041;-68
2021/07/26 01:04:31;;;;;;;7.35;3.05;;;16.90;99.90;;;;;;5034840;28;20086;-68
2021/07/26 01:06:57;;;;;;;7.68;4.03;;;16.90;99.90;;;;;;5034818;28;20417;-68
2021/07/26 01:09:23;;;;;;;5.35;3.90;;;16.90;99.90;;;;;;5032509;28;20041;-69
2021/07/26 01:11:49;;;;;;;7.80;4.60;;;16.90;99.90;;;;;;5029224;28;20025;-68
2021/07/26 01:14:17;;;;;;;7.63;3.72;;;16.90;99.90;;;;;;5030889;28;20041;-68
2021/07/26 01:16:47;;;;;;;7.28;4.20;;;16.90;99.90;;;;;;5035366;28;20033;-68
2021/07/26 01:19:13;;;;;;;5.13;3.95;;;16.90;99.90;;;;;;5032952;28;20103;-68
2021/07/26 01:21:38;;;;;;;8.23;4.18;;;16.80;99.90;;;;;;5034989;28;20033;-68
2021/07/26 01:24:04;;;;;;;7.07;5.05;;;16.80;99.90;;;;;;5031779;28;20025;-68
2021/07/26 01:26:30;;;;;;;7.88;4.75;;;16.90;99.90;;;;;;5033816;28;20442;-68
2021/07/26 01:28:58;;;;;;;7.57;4.47;;;16.90;99.90;;;;;;5027247;28;20020;-68
2021/07/26 01:31:24;;;;;;;7.78;4.30;;;16.90;99.90;;;;;;5032811;28;20067;-68
2021/07/26 01:33:50;;;;;;;6.13;4.30;;;16.90;99.90;;;;;;5033363;28;20025;-68
2021/07/26 01:36:17;;;;;;;9.45;4.10;;;16.90;99.90;;;;;;5032470;28;20064;-68
2021/07/26 01:38:45;;;;;;;6.63;4.88;;;16.90;99.90;;;;;;5032355;28;20083;-68
2021/07/26 01:41:22;;;;;;;8.20;5.00;;;16.90;99.90;;;;;;5033172;28;20026;-68
2021/07/26 01:44:10;;;;;;;7.18;4.68;;;16.90;99.90;;;;;;5026484;28;20030;-68
2021/07/26 01:47:01;;;;;;;8.60;4.47;;;16.80;99.90;;;;;;5026834;28;20029;-68
2021/07/26 01:49:45;;;;;;;10.68;5.10;;;16.80;99.90;;;;;;5032492;28;20034;-68
2021/07/26 01:52:13;;;;;;;6.70;4.20;;;16.80;99.90;;;;;;5033877;28;20049;-68
2021/07/26 01:54:39;;;;;;;9.98;4.63;;;16.80;99.90;;;;;;5033545;28;20020;-68
2021/07/26 01:57:05;;;;;;;9.38;4.90;;;16.80;99.90;;;;;;5029823;28;20463;-68
2021/07/26 01:59:31;;;;;;;7.22;4.30;;;16.80;99.90;;;;;;5031398;28;20040;-68
2021/07/26 02:01:56;;;;;;;6.10;4.00;;;16.80;99.90;;;;;;5032667;28;20060;-68
2021/07/26 02:04:22;;;;;;;8.38;4.82;;;16.80;99.90;;;;;;5025587;28;20033;-68
2021/07/26 02:06:48;;;;;;;6.25;4.57;;;16.70;99.90;;;;;;5029482;28;20056;-68
2021/07/26 02:09:14;;;;;;;9.30;5.00;;;16.80;99.90;;;;;;5029031;28;20460;-68
2021/07/26 02:11:39;;;;;;;9.85;5.05;;;16.70;99.90;;;;;;5031940;28;20033;-68
2021/07/26 02:14:09;;;;;;;8.50;5.55;;;16.70;99.90;;;;;;5031134;28;20037;-68
2021/07/26 02:16:36;;;;;;;7.72;5.03;;;16.70;99.90;;;;;;5032008;28;20080;-68
2021/07/26 02:19:01;;;;;;;7.13;4.68;;;16.70;99.90;;;;;;5030191;28;20388;-68
2021/07/26 02:21:27;;;;;;;9.40;4.75;;;16.70;99.90;;;;;;5034475;28;20041;-68
2021/07/26 02:23:52;;;;;;;7.57;5.38;;;16.70;99.90;;;;;;5030094;28;20067;-68
2021/07/26 02:26:18;;;;;;;6.68;5.93;;;16.70;99.90;;;;;;5016039;28;20040;-68
2021/07/26 02:28:43;;;;;;;8.00;5.43;;;16.70;99.90;;;;;;5030417;28;20109;-68
2021/07/26 02:31:09;;;;;;;8.77;5.40;;;16.60;99.90;;;;;;5032315;28;20029;-68
2021/07/26 02:33:34;;;;;;;10.02;6.35;;;16.70;99.90;;;;;;5030995;28;20411;-68
2021/07/26 02:36:00;;;;;;;8.60;5.32;;;16.60;99.90;;;;;;5032147;28;20503;-68
2021/07/26 02:38:25;;;;;;;7.70;5.35;;;16.70;99.90;;;;;;5027389;28;20419;-68
2021/07/26 02:40:51;;;;;;;9.23;4.82;;;16.60;99.90;;;;;;5028494;28;20037;-68
2021/07/26 02:43:16;;;;;;;9.00;5.45;;;16.60;99.90;;;;;;5022453;28;20059;-68
2021/07/26 02:45:42;;;;;;;9.50;6.05;;;16.60;99.90;;;;;;5033504;28;20038;-68
2021/07/26 02:48:08;;;;;;;9.48;5.88;;;16.60;99.90;;;;;;5025615;28;20409;-68
2021/07/26 02:50:34;;;;;;;11.40;6.53;;;16.60;99.90;;;;;;5027765;28;20026;-68
2021/07/26 02:53:00;;;;;;;9.38;6.10;;;16.70;99.90;;;;;;5032130;28;20029;-68
2021/07/26 02:55:27;;;;;;;8.13;5.97;;;16.60;99.90;;;;;;5028820;28;20407;-69
2021/07/26 02:57:53;;;;;;;8.23;5.47;;;16.60;99.90;;;;;;5022938;28;20052;-68
2021/07/26 03:00:19;;;;;;;7.13;5.25;;;16.60;99.90;;;;;;5022039;28;20029;-68
2021/07/26 03:02:45;;;;;;;6.45;5.55;;;16.70;99.90;;;;;;5025651;28;20372;-68
2021/07/26 03:05:10;;;;;;;10.88;6.55;;;16.70;99.90;;;;;;5030553;28;20017;-68
2021/07/26 03:07:36;;;;;;;11.15;6.57;;;16.70;99.90;;;;;;5026170;28;20108;-68
2021/07/26 03:10:02;;;;;;;11.18;6.65;;;16.70;99.90;;;;;;5031246;28;20480;-68
2021/07/26 03:12:27;;;;;;;11.98;6.50;;;16.70;99.90;;;;;;5032617;28;20492;-68
2021/07/26 03:14:53;;;;;;;11.00;6.60;;;16.70;99.90;;;;;;5030895;28;20080;-68
2021/07/26 03:17:18;;;;;;;8.10;6.85;;;16.70;99.90;;;;;;5030697;28;20034;-68
2021/07/26 03:19:45;;;;;;;10.27;6.70;;;16.70;99.90;;;;;;5032441;28;20057;-68
2021/07/26 03:22:55;;;;;;;10.57;6.78;;;16.70;99.90;;;;;;5026797;28;20067;-68
2021/07/26 03:25:21;;;;;;;9.27;6.00;;;16.70;99.90;;;;;;5030688;28;20029;-68
2021/07/26 03:27:48;;;;;;;10.23;6.60;;;16.70;99.90;;;;;;5030574;28;20033;-68
2021/07/26 03:30:15;;;;;;;11.10;6.65;;;16.70;99.90;;;;;;5033177;28;20020;-68
2021/07/26 03:32:40;;;;;;;9.50;6.85;;;16.70;99.90;;;;;;5030899;28;20021;-68
2021/07/26 03:35:06;;;;;;;10.15;6.70;;;16.70;99.90;;;;;;5029162;28;20018;-68
2021/07/26 03:37:32;;;;;;;9.95;7.40;;;16.70;99.90;;;;;;5029725;28;20065;-68
2021/07/26 03:39:57;;;;;;;9.48;6.50;;;16.70;99.90;;;;;;5022745;28;20491;-68
2021/07/26 03:42:23;;;;;;;9.65;6.57;;;16.70;99.90;;;;;;5028207;28;20029;-68
2021/07/26 03:44:48;;;;;;;10.68;6.85;;;16.70;99.90;;;;;;5027419;28;20079;-68
2021/07/26 03:47:13;;;;;;;11.73;6.35;;;16.70;99.90;;;;;;5030500;28;20025;-68
2021/07/26 03:49:39;;;;;;;9.00;7.40;;;16.70;99.90;;;;;;5028087;28;20361;-68
2021/07/26 03:52:05;;;;;;;11.70;7.03;;;16.70;99.90;;;;;;5019305;28;20033;-68
2021/07/26 03:54:30;;;;;;;7.82;6.43;;;16.70;99.90;;;;;;5028971;28;20057;-68
2021/07/26 03:56:57;;;;;;;11.25;7.75;;;16.70;99.90;;;;;;5035759;28;20026;-70
2021/07/26 03:59:23;;;;;;;11.75;7.90;;;16.70;99.90;;;;;;5031486;28;20033;-68
2021/07/26 04:01:49;;;;;;;11.38;8.15;;;16.80;99.90;;;;;;5030900;28;20488;-68
2021/07/26 04:04:16;;;;;;;10.23;7.38;;;16.80;99.90;;;;;;5027779;28;20037;-69
2021/07/26 04:06:46;;;;;;;9.93;7.18;;;16.90;99.90;;;;;;5032295;28;20033;-69
2021/07/26 04:09:11;;;;;;;13.93;7.72;;;16.90;99.90;;;;;;5029023;28;20460;-68
2021/07/26 04:11:39;;;;;;;11.38;7.55;;;17.00;99.90;;;;;;5028589;28;20041;-70
2021/07/26 04:14:06;;;;;;;10.00;7.47;;;17.00;99.90;;;;;;5031816;28;20061;-68
2021/07/26 04:16:31;;;;;;;12.23;6.82;;;17.00;99.90;;;;;;5030465;28;20052;-68
2021/07/26 04:18:59;;;;;;;11.38;7.72;;;17.00;99.90;;;;;;5027749;28;20052;-69
2021/07/26 04:21:29;;;;;;;11.75;6.60;;;17.00;99.90;;;;;;5027847;28;20115;-68
2021/07/26 04:23:55;;;;;;;9.90;6.85;;;17.00;99.90;;;;;;5029784;28;20079;-68
2021/07/26 04:26:21;;;;;;;10.32;7.05;;;17.10;99.90;;;;;;5018046;28;20033;-69
2021/07/26 04:28:46;;;;;;;11.40;7.45;;;17.10;99.90;;;;;;5030813;28;20446;-68
2021/07/26 04:31:12;;;;;;;10.15;7.18;;;17.10;99.90;;;;;;5030254;28;20041;-69
2021/07/26 04:33:37;;;;;;;9.00;6.93;;;17.10;99.90;;;;;;5031963;28;20025;-68
2021/07/26 04:36:05;;;;;;;9.95;7.55;;;17.20;99.90;;;;;;5029031;28;20096;-69
2021/07/26 04:38:34;;;;;;;9.20;6.70;;;17.20;99.90;;;;;;5031745;28;20495;-68
2021/07/26 04:41:02;;;;;;;10.18;6.75;;;17.20;99.90;;;;;;5027699;28;20392;-69
2021/07/26 04:43:28;;;;;;;9.73;7.10;;;17.30;99.90;;;;;;5026160;28;20053;-69
2021/07/26 04:45:55;;;;;;;12.18;6.63;;;17.40;99.90;;;;;;5022032;28;20042;-70
2021/07/26 04:48:21;;;;;;;11.90;7.10;;;17.40;99.90;;;;;;5018174;28;20021;-68
2021/07/26 04:50:47;;;;;;;11.90;6.85;;;17.50;99.90;;;;;;5029277;28;20198;-67
2021/07/26 04:53:13;;;;;;;8.15;6.43;;;17.60;99.90;;;;;;5034596;28;20053;-67
2021/07/26 04:55:38;;;;;;;9.90;6.78;;;17.60;99.90;;;;;;5030059;28;20072;-69
2021/07/26 04:58:04;;;;;;;9.43;6.90;;;17.70;99.90;;;;;;5026100;28;20030;-70
2021/07/26 05:00:30;;;;;;;10.02;6.22;;;17.70;99.90;;;;;;5019298;28;20383;-69
2021/07/26 05:02:55;;;;;;;10.32;7.15;;;17.80;99.90;;;;;;5024805;28;20035;-70
2021/07/26 05:05:21;;;;;;;9.75;6.10;;;17.90;99.90;;;;;;5030748;28;20033;-70
2021/07/26 05:07:47;;;;;;;8.73;6.28;;;17.90;99.90;;;;;;5030348;28;20033;-69
2021/07/26 05:10:12;;;;;;;8.25;6.00;;;18.00;99.90;;;;;;5033081;28;20022;-70
2021/07/26 05:12:38;;;;;;;9.23;6.55;;;18.10;99.90;;;;;;5034035;28;20049;-70
2021/07/26 05:15:05;;;;;;;7.15;5.72;;;18.10;99.90;;;;;;5031568;28;20507;-68
2021/07/26 05:17:30;;;;;;;9.98;6.28;;;18.20;99.90;;;;;;5030274;28;20482;-69
2021/07/26 05:19:56;;;;;;;7.00;5.80;;;18.20;99.90;;;;;;5029354;28;20095;-70
2021/07/26 05:22:22;;;;;;;7.95;5.85;;;18.20;99.90;;;;;;5023778;28;20033;-70
2021/07/26 05:24:48;;;;;;;7.82;5.53;;;18.30;99.90;;;;;;5028577;28;20392;-70
2021/07/26 05:27:15;;;;;;;10.00;5.55;;;18.40;99.90;;;;;;5030867;28;20422;-69
2021/07/26 05:29:40;;;;;;;7.28;5.80;;;18.50;99.90;;;;;;5031176;28;20521;-71
2021/07/26 05:32:06;;;;;;;6.63;5.60;;;18.60;99.90;;;;;;5031814;28;20112;-71
2021/07/26 05:34:32;;;;;;;7.05;5.50;;;18.70;99.90;;;;;;5033484;28;20053;-69
2021/07/26 05:36:58;;;;;;;7.55;5.15;;;18.80;99.90;;;;;;5033979;28;20072;-70
2021/07/26 05:39:24;;;;;;;7.95;4.85;;;19.00;99.90;;;;;;5028937;28;20038;-71
2021/07/26 05:41:51;;;;;;;8.98;5.53;;;19.20;99.90;;;;;;5028704;28;20034;-70
2021/07/26 05:44:16;;;;;;;7.18;5.28;;;19.40;99.90;;;;;;5034156;28;20036;-71
2021/07/26 05:46:42;;;;;;;6.53;4.95;;;19.50;99.90;;;;;;5031501;28;20025;-70
2021/07/26 05:49:07;;;;;;;7.28;5.68;;;19.70;99.90;;;;;;5031370;28;20030;-69
2021/07/26 05:51:33;;;;;;;7.05;4.90;;;19.80;99.70;;;;;;5033284;28;20506;-71
2021/07/26 05:53:59;;;;;;;9.13;5.85;;;19.90;99.40;;;;;;5031019;28;20044;-69
2021/07/26 05:56:24;;;;;;;7.32;5.20;;;20.00;98.90;;;;;;5028769;28;20030;-70
2021/07/26 05:58:50;;;;;;;8.90;5.57;;;20.00;98.40;;;;;;5034738;28;20456;-70
2021/07/26 06:03:45;;;;;;;9.07;5.20;;;20.00;98.20;;;;;;5034585;28;20049;-70
2021/07/26 06:06:11;;;;;;;6.72;4.68;;;20.00;98.00;;;;;;5033373;28;20108;-72
2021/07/26 06:08:37;;;;;;;6.72;4.95;;;19.90;97.80;;;;;;5034945;28;20112;-72
2021/07/26 06:11:02;;;;;;;9.02;5.32;;;19.90;97.80;;;;;;5017148;28;20061;-72
2021/07/26 06:13:29;;;;;;;8.40;4.82;;;19.80;97.70;;;;;;5017088;28;20391;-71
2021/07/26 06:15:54;;;;;;;6.53;5.57;;;19.80;97.90;;;;;;5033039;28;20506;-71
2021/07/26 06:18:20;;;;;;;6.72;5.43;;;19.80;97.90;;;;;;5034616;28;20061;-71
2021/07/26 06:20:45;;;;;;;7.47;4.90;;;19.70;98.00;;;;;;5016208;28;20029;-71
2021/07/26 06:23:11;;;;;;;8.68;4.82;;;19.80;98.10;;;;;;5032791;28;20039;-70
2021/07/26 06:25:36;;;;;;;6.95;4.82;;;19.80;98.00;;;;;;5034557;28;20443;-70
2021/07/26 06:28:04;;;;;;;6.03;4.85;;;19.90;97.90;;;;;;5028938;28;20021;-70
2021/07/26 06:30:30;;;;;;;8.73;5.63;;;19.90;97.70;;;;;;5021479;28;20494;-70
2021/07/26 06:32:56;;;;;;;9.85;5.40;;;20.00;97.50;;;;;;5034493;28;20025;-70
2021/07/26 06:35:22;;;;;;;8.73;5.43;;;20.00;97.40;;;;;;5032540;28;20392;-71
2021/07/26 06:37:47;;;;;;;8.43;5.15;;;20.00;97.20;;;;;;5034266;28;20037;-71
2021/07/26 06:40:14;;;;;;;7.20;5.45;;;20.10;97.30;;;;;;5032323;28;20498;-71
2021/07/26 06:42:40;;;;;;;6.22;5.13;;;20.10;97.30;;;;;;5032985;28;20483;-71
2021/07/26 06:45:09;;;;;;;9.40;5.15;;;20.10;97.10;;;;;;5018000;28;20045;-71
2021/07/26 06:47:37;;;;;;;6.95;4.55;;;20.20;97.20;;;;;;5033989;28;20021;-70
2021/07/26 06:50:05;;;;;;;9.05;5.45;;;20.40;97.20;;;;;;5033758;28;20024;-71
2021/07/26 06:52:30;;;;;;;6.60;4.85;;;20.40;96.90;;;;;;5032087;28;20029;-70
2021/07/26 06:54:56;;;;;;;8.70;4.63;;;20.60;96.60;;;;;;5025242;28;20033;-71
2021/07/26 06:57:21;;;;;;;6.95;5.15;;;20.60;96.30;;;;;;5033456;28;20112;-70
2021/07/26 06:59:47;;;;;;;6.43;4.38;;;20.70;96.20;;;;;;5022975;28;20088;-71
2021/07/26 07:02:12;;;;;;;6.15;4.55;;;20.80;96.10;;;;;;5031863;28;20029;-71
2021/07/26 07:04:38;;;;;;;5.95;4.75;;;21.00;96.10;;;;;;5031613;28;20483;-71
2021/07/26 07:07:05;;;;;;;6.40;4.47;;;21.10;95.50;;;;;;5019386;28;20033;-71
2021/07/26 07:09:32;;;;;;;7.18;4.47;;;21.10;95.40;;;;;;5033149;28;20083;-71
2021/07/26 07:11:57;;;;;;;7.40;3.55;;;21.10;95.30;;;;;;5033767;28;20018;-70
2021/07/26 07:14:23;;;;;;;6.10;4.03;;;21.10;95.00;;;;;;5032798;28;20511;-70
2021/07/26 07:16:48;;;;;;;6.35;3.90;;;21.10;94.90;;;;;;5033007;28;20044;-70
2021/07/26 07:19:14;;;;;;;5.68;4.28;;;21.10;94.80;;;;;;5031463;28;20060;-70
2021/07/26 07:21:39;;;;;;;5.90;3.45;;;21.10;94.70;;;;;;5032159;28;20041;-70
2021/07/26 07:24:05;;;;;;;6.88;4.07;;;21.10;94.70;;;;;;5033181;28;20028;-71
2021/07/26 07:26:31;;;;;;;4.82;3.63;;;21.10;94.60;;;;;;5033082;28;20033;-71
2021/07/26 07:28:57;;;;;;;4.28;3.85;;;21.10;94.60;;;;;;5033472;28;20049;-71
2021/07/26 07:31:44;;;;;;;6.43;3.80;;;21.20;94.70;;;;;;5030445;28;20053;-71
2021/07/26 07:34:08;;;;;;;4.93;3.72;;;21.30;94.60;;;;;;5021236;28;20045;-71
2021/07/26 07:36:34;;;;;;;4.88;2.80;;;21.40;94.50;;;;;;5015317;28;20030;-70
2021/07/26 07:39:00;;;;;;;5.63;4.00;;;21.60;94.50;;;;;;5021312;28;20036;-70
2021/07/26 07:41:26;;;;;;;7.13;4.20;;;21.80;94.30;;;;;;5028702;28;20109;-69
2021/07/26 07:43:52;;;;;;;6.28;3.92;;;22.10;94.00;;;;;;5032788;28;20053;-71
2021/07/26 07:46:19;;;;;;;5.05;4.10;;;22.30;93.60;;;;;;5029643;28;20037;-72
2021/07/26 07:48:46;;;;;;;5.55;4.13;;;22.30;93.20;;;;;;5014682;28;20059;-71
2021/07/26 07:51:12;;;;;;;5.75;4.25;;;22.40;92.80;;;;;;5027590;28;20092;-71
2021/07/26 07:53:38;;;;;;;7.88;4.63;;;22.50;92.70;;;;;;5028977;28;20029;-71
2021/07/26 07:56:04;;;;;;;6.57;3.95;;;22.50;92.40;;;;;;5031807;28;20108;-71
2021/07/26 07:58:30;;;;;;;6.53;3.97;;;22.50;92.30;;;;;;5032556;28;20421;-71
2021/07/26 08:00:56;;;;;;;5.32;3.70;;;22.50;92.40;;;;;;5031678;28;20025;-71
2021/07/26 08:03:22;;;;;;;4.30;3.38;;;22.60;92.20;;;;;;5031348;28;20040;-70
2021/07/26 08:05:49;;;;;;;5.20;3.83;;;22.50;92.10;;;;;;5032718;28;20018;-72
2021/07/26 08:08:15;;;;;;;4.38;3.22;;;22.40;92.00;;;;;;5032340;28;20026;-72
2021/07/26 08:10:41;;;;;;;5.85;3.33;;;22.40;92.00;;;;;;5031867;28;20021;-72
2021/07/26 08:13:07;;;;;;;3.75;2.67;;;22.40;91.80;;;;;;5028884;28;20435;-70
2021/07/26 08:15:33;;;;;;;5.82;2.58;;;22.40;91.80;;;;;;5031406;28;20498;-70
2021/07/26 08:17:58;;;;;;;3.85;2.88;;;22.30;91.60;;;;;;5015227;28;20029;-69
2021/07/26 08:20:24;;;;;;;5.72;3.17;;;22.30;91.70;;;;;;5029873;28;20030;-69
2021/07/26 08:22:50;;;;;;;5.40;2.95;;;22.30;91.80;;;;;;5032862;28;20061;-69
2021/07/26 08:25:15;;;;;;;4.10;2.30;;;22.30;91.70;;;;;;5032784;28;20534;-69
2021/07/26 08:27:48;;;;;;;7.38;3.20;;;22.30;91.50;;;;;;5032617;28;20029;-69
2021/07/26 08:30:13;;;;;;;5.30;2.83;;;22.40;91.50;;;;;;5034961;28;20013;-69
2021/07/26 08:32:39;;;;;;;4.90;2.55;;;22.50;91.30;;;;;;5036646;28;20028;-69
2021/07/26 08:35:05;;;;;;;3.53;2.15;;;22.60;91.00;;;;;;5036597;28;20032;-67
2021/07/26 08:37:33;;;;;;;3.25;2.22;;;22.70;90.70;;;;;;5036589;28;20053;-69
2021/07/26 08:40:02;;;;;;;2.90;2.20;;;22.60;90.50;;;;;;5036146;28;20022;-68
2021/07/26 08:42:29;;;;;;;2.97;1.88;;;22.60;90.40;;;;;;5030543;28;20076;-69
2021/07/26 08:44:54;;;;;;;3.75;2.10;;;22.70;90.20;;;;;;5016449;28;20480;-69
2021/07/26 08:47:23;;;;;;;3.25;2.58;;;22.70;90.00;;;;;;5031932;28;20076;-68
2021/07/26 08:49:50;;;;;;;4.43;1.88;;;22.80;90.10;;;;;;5035727;28;20384;-68
2021/07/26 08:52:22;;;;;;;3.45;2.20;;;22.70;89.70;;;;;;5035958;28;20025;-69
2021/07/26 08:54:52;;;;;;;3.47;1.80;;;22.70;89.90;;;;;;5017289;28;20026;-69
2021/07/26 08:57:18;;;;;;;3.45;2.15;;;22.70;89.90;;;;;;5035301;28;20022;-68
2021/07/26 08:59:45;;;;;;;2.67;1.60;;;22.60;90.00;;;;;;5036062;28;20032;-69
2021/07/26 09:02:10;;;;;;;2.58;1.73;;;22.60;90.00;;;;;;5024005;28;20044;-69
2021/07/26 09:04:37;;;;;;;4.03;1.23;;;22.70;89.90;;;;;;5035921;28;20025;-69
2021/07/26 09:07:06;;;;;;;2.67;1.27;;;22.80;89.30;;;;;;5036388;28;20034;-69
2021/07/26 09:09:46;;;;;;;2.35;1.40;;;22.80;88.70;;;;;;5034106;28;20018;-68
2021/07/26 09:12:28;;;;;;;3.10;1.63;;;22.80;88.50;;;;;;5032735;28;20132;-68
2021/07/26 09:14:54;;;;;;;4.07;1.73;;;22.70;88.50;;;;;;5024533;28;20059;-70
2021/07/26 09:17:22;;;;;;;3.85;1.70;;;22.60;88.60;;;;;;5035231;28;20040;-70
2021/07/26 09:20:00;;;;;;;3.53;1.30;;;22.60;89.60;;;;;;5034610;28;20040;-68
2021/07/26 09:22:37;;;;;;;4.03;1.67;;;22.70;88.60;;;;;;5034945;28;20060;-70
2021/07/26 09:25:12;;;;;;;2.65;1.15;;;22.80;88.50;;;;;;5019408;28;20030;-70
2021/07/26 09:27:38;;;;;;;2.67;1.42;;;22.90;87.80;;;;;;5034391;28;20109;-71
2021/07/26 09:30:14;;;;;;;2.78;1.23;;;22.90;87.50;;;;;;5035600;28;20033;-72
2021/07/26 09:32:41;;;;;;;1.70;1.15;;;23.10;87.60;;;;;;5034044;28;20044;-70
2021/07/26 09:35:08;;;;;;;4.82;1.58;;;23.30;87.00;;;;;;5034685;28;20052;-71
2021/07/26 09:37:33;;;;;;;2.45;1.05;;;23.40;86.10;;;;;;5034905;28;20044;-70
2021/07/26 09:40:23;;;;;;;3.42;1.30;;;23.50;85.50;;;;;;5033781;28;20061;-71
2021/07/26 09:42:50;;;;;;;2.45;1.20;;;23.70;85.80;;;;;;5018437;28;20044;-69
2021/07/26 09:45:25;;;;;;;2.50;1.25;;;23.80;85.10;;;;;;5035009;28;20037;-70
2021/07/26 09:48:07;;;;;;;2.33;1.23;;;24.00;85.00;;;;;;5033847;28;20021;-70
2021/07/26 09:50:34;;;;;;;2.08;1.50;;;24.30;84.30;;;;;;5033948;28;20079;-69
2021/07/26 09:53:14;;;;;;;2.15;1.50;;;24.40;82.60;;;;;;5034373;28;20538;-72
2021/07/26 09:55:42;;;;;;;3.50;1.83;;;24.40;82.30;;;;;;5034782;28;20411;-71
2021/07/26 09:58:09;;;;;;;1.75;0.88;;;24.50;82.00;;;;;;5033473;28;20029;-70
2021/07/26 10:00:36;;;;;;;4.35;1.10;;;24.60;80.80;;;;;;5035078;28;20380;-69
2021/07/26 10:03:03;;;;;;;3.40;1.30;;;24.60;81.00;;;;;;5028364;28;20039;-70
2021/07/26 10:05:31;;;;;;;3.42;1.17;;;24.70;79.50;;;;;;5031701;28;20029;-70
2021/07/26 10:07:56;;;;;;;1.88;1.10;;;24.60;79.10;;;;;;5025268;28;20032;-69
2021/07/26 10:10:22;;;;;;;2.47;1.00;;;24.50;78.40;;;;;;5033875;28;20480;-70
2021/07/26 10:12:50;;;;;;;3.08;0.90;;;24.40;78.60;;;;;;5031136;28;20026;-70
2021/07/26 10:15:16;;;;;;;2.03;1.10;;;24.30;79.10;;;;;;5034559;28;20500;-70
2021/07/26 10:17:42;;;;;;;2.83;1.00;;;24.50;78.70;;;;;;5028842;28;20072;-70
2021/07/26 10:20:09;;;;;;;2.72;0.75;;;24.60;79.10;;;;;;5031228;28;20044;-70
2021/07/26 10:22:35;;;;;;;3.55;0.98;;;24.70;77.70;;;;;;5031334;28;20107;-71
2021/07/26 10:25:15;;;;;;;3.92;0.60;;;24.70;77.40;;;;;;5032190;28;20131;-71
2021/07/26 10:27:42;;;;;;;2.22;0.90;;;24.70;77.40;;;;;;5030850;28;20064;-71
2021/07/26 10:30:08;;;;;;;1.83;0.70;;;24.80;76.90;;;;;;5033757;28;20033;-70
2021/07/26 10:32:38;;;;;;;2.33;0.80;;;25.00;76.90;;;;;;5028749;28;20017;-70
2021/07/26 10:35:13;;;;;;;3.00;0.90;;;25.20;75.40;;;;;;5034318;28;20017;-70
2021/07/26 10:37:38;;;;;;;1.80;0.90;;;25.30;74.90;;;;;;5033732;28;20037;-69
2021/07/26 10:40:21;;;;;;;1.80;0.68;;;25.40;75.10;;;;;;5030181;28;20033;-69
2021/07/26 10:42:52;;;;;;;1.20;0.60;;;25.50;75.10;;;;;;5024473;28;20029;-69
2021/07/26 10:45:33;;;;;;;1.25;0.50;;;25.60;75.40;;;;;;5022835;28;20425;-69
2021/07/26 10:48:20;;;;;;;1.73;0.60;;;25.70;74.30;;;;;;5032223;28;20107;-69
2021/07/26 10:50:50;;;;;;;1.10;0.60;;;25.90;72.90;;;;;;5033258;28;20029;-69
2021/07/26 10:53:34;;;;;;;1.38;0.80;;;25.80;72.60;;;;;;5033869;28;20021;-69
2021/07/26 10:56:11;;;;;;;2.38;0.80;;;25.70;72.20;;;;;;5031683;28;20022;-69
2021/07/26 10:58:39;;;;;;;2.58;0.65;;;25.60;72.80;;;;;;5029017;28;20026;-68
2021/07/26 11:01:20;;;;;;;1.60;0.90;;;25.50;72.40;;;;;;5032508;28;20156;-69
2021/07/26 11:03:46;;;;;;;2.70;0.60;;;25.50;73.00;;;;;;5033115;28;20029;-69
2021/07/26 11:06:35;;;;;;;1.35;0.60;;;25.60;72.90;;;;;;5033497;28;20036;-68
2021/07/26 11:09:18;;;;;;;1.27;0.70;;;25.70;72.50;;;;;;5031952;28;20017;-70
2021/07/26 11:11:45;;;;;;;1.48;0.70;;;25.70;71.80;;;;;;5031818;28;20026;-69
2021/07/26 11:14:12;;;;;;;1.45;0.80;;;25.80;71.20;;;;;;5032538;28;20064;-71
2021/07/26 11:16:58;;;;;;;1.95;0.88;;;25.60;71.50;;;;;;5030034;28;20036;-72
2021/07/26 11:19:29;;;;;;;2.10;0.77;;;25.50;71.60;;;;;;5028242;28;20506;-69
2021/07/26 11:21:55;;;;;;;1.75;1.00;;;25.30;71.90;;;;;;5032284;28;20057;-69
2021/07/26 11:24:39;;;;;;;2.95;1.40;;;25.20;72.40;;;;;;5026624;28;20037;-71
2021/07/26 11:27:05;;;;;;;15.93;1.50;;;25.00;73.50;;;;;;5032705;28;20084;-63
2021/07/26 11:29:31;;;;;;;3.92;1.70;;;24.90;74.30;;;;;;5032730;28;20376;-70
2021/07/26 11:31:57;;;;;;;6.15;1.92;;;24.80;74.70;;;;;;5031964;28;20052;-71
2021/07/26 11:34:27;;;;;;;3.45;1.90;;;24.50;75.30;;;;;;5032318;28;20021;-71
2021/07/26 11:37:10;;;;;;;5.95;1.92;;;24.20;76.30;;;;;;5032512;28;20029;-71
2021/07/26 11:39:55;;;;;;;2.90;1.60;;;24.00;77.50;;;;;;5028363;28;20104;-67
2021/07/26 11:42:25;;;;;;;4.07;2.00;;;23.80;78.40;;;;;;5033758;28;20570;-68
2021/07/26 11:44:52;;;;;;;4.05;1.92;;;23.70;79.30;;;;;;5031593;28;20039;-73
2021/07/26 11:47:37;;;;;;;3.17;1.98;;;23.70;79.60;;;;;;5031255;28;20052;-71
2021/07/26 11:50:36;;;;;;;3.50;2.38;;;23.90;79.90;;;;;;5031020;28;20112;-71
2021/07/26 11:53:02;;;;;;;3.78;2.30;;;24.10;80.10;;;;;;5025325;28;20060;-70
2021/07/26 11:55:29;;;;;;;4.30;2.50;;;24.30;79.20;;;;;;5031372;28;20053;-69
2021/07/26 11:58:03;;;;;;;3.63;2.58;;;24.50;78.40;;;;;;5028999;28;20034;-68
2021/07/26 12:00:34;;;;;;;3.75;1.92;;;24.60;78.40;;;;;;5029314;28;20056;-70
2021/07/26 12:03:05;;;;;;;1.88;0.80;;;24.70;78.60;;;;;;5021750;28;20038;-70
2021/07/26 12:05:32;;;;;;;2.53;0.90;;;25.10;77.30;;;;;;5021294;28;20083;-71
2021/07/26 12:07:58;;;;;;;2.60;0.90;;;25.30;75.80;;;;;;5032459;28;20030;-70
2021/07/26 12:10:32;;;;;;;2.95;1.10;;;25.70;75.00;;;;;;5031385;28;20021;-69
2021/07/26 12:13:07;;;;;;;3.95;1.13;;;25.90;72.60;;;;;;5029269;28;20061;-68
2021/07/26 12:15:32;;;;;;;2.05;0.93;;;25.90;71.80;;;;;;5031851;28;20036;-69
2021/07/26 12:18:03;;;;;;;2.70;0.90;;;26.00;72.50;;;;;;5013543;28;20027;-70
2021/07/26 12:20:31;;;;;;;5.45;1.58;;;26.10;72.00;;;;;;5021277;28;20268;-68
2021/07/26 12:22:57;;;;;;;2.00;1.08;;;26.10;70.80;;;;;;5022804;28;20391;-68
2021/07/26 12:25:23;;;;;;;2.30;1.27;;;25.90;70.90;;;;;;5028536;28;20037;-69
2021/07/26 12:27:58;;;;;;;2.78;1.45;;;26.00;71.60;;;;;;5031442;28;20479;-70
2021/07/26 12:30:37;;;;;;;2.38;1.15;;;26.20;71.10;;;;;;5029342;28;20036;-68
2021/07/26 12:33:04;;;;;;;2.45;1.55;;;26.30;69.40;;;;;;5032756;28;20056;-69
2021/07/26 12:35:29;;;;;;;2.70;1.20;;;26.20;69.40;;;;;;5032197;28;20456;-69
2021/07/26 12:38:16;;;;;;;2.50;1.02;;;26.30;69.20;;;;;;5032595;28;20036;-69
2021/07/26 12:40:48;;;;;;;2.70;1.35;;;26.50;68.80;;;;;;5032655;28;20029;-69
2021/07/26 12:43:18;;;;;;;4.80;1.27;;;26.40;67.90;;;;;;5032181;28;20018;-69
2021/07/26 12:46:03;;;;;;;2.83;1.58;;;26.40;69.00;;;;;;5016099;28;20108;-68
2021/07/26 12:48:30;;;;;;;3.33;1.30;;;26.50;67.80;;;;;;5019242;28;20435;-69
2021/07/26 12:50:57;;;;;;;1.95;1.00;;;26.40;67.90;;;;;;5012730;28;20101;-68
2021/07/26 12:53:24;;;;;;;2.47;0.90;;;26.50;67.70;;;;;;5032247;28;20157;-69